sensor_id;sensor_type;location;lat;lon;timestamp;temperature;humidity
44117;DHT22;29781;49.480;8.512;2023-06-14T00:02:19;20.40;87.50
44117;DHT22;29781;49.480;8.512;2023-06-14T00:04:44;20.40;90.40
44117;DHT22;29781;49.480;8.512;2023-06-14T00:07:10;20.30;90.10
44117;DHT22;29781;49.480;8.512;2023-06-14T00:09:38;20.20;90.20
44117;DHT22;29781;49.480;8.512;2023-06-14T00:12:04;20.20;88.80
44117;DHT22;29781;49.480;8.512;2023-06-14T00:14:31;20.30;90.70
44117;DHT22;29781;49.480;8.512;2023-06-14T00:16:56;20.40;90.70
44117;DHT22;29781;49.480;8.512;2023-06-14T00:19:24;20.30;90.90
44117;DHT22;29781;49.480;8.512;2023-06-14T00:21:50;20.20;90.00
44117;DHT22;29781;49.480;8.512;2023-06-14T00:24:17;20.20;90.00
44117;DHT22;29781;49.480;8.512;2023-06-14T00:26:42;20.20;89.50
44117;DHT22;29781;49.480;8.512;2023-06-14T00:29:08;20.30;88.80
44117;DHT22;29781;49.480;8.512;2023-06-14T00:31:33;20.50;89.50
44117;DHT22;29781;49.480;8.512;2023-06-14T00:33:59;20.30;89.50
44117;DHT22;29781;49.480;8.512;2023-06-14T00:36:24;20.30;89.30
44117;DHT22;29781;49.480;8.512;2023-06-14T00:38:50;20.50;90.40
44117;DHT22;29781;49.480;8.512;2023-06-14T00:41:15;20.40;90.90
44117;DHT22;29781;49.480;8.512;2023-06-14T00:43:41;20.40;90.80
44117;DHT22;29781;49.480;8.512;2023-06-14T00:46:06;20.40;90.00
44117;DHT22;29781;49.480;8.512;2023-06-14T00:48:33;20.30;87.30
44117;DHT22;29781;49.480;8.512;2023-06-14T00:51:00;20.20;87.50
44117;DHT22;29781;49.480;8.512;2023-06-14T00:53:29;20.20;86.10
44117;DHT22;29781;49.480;8.512;2023-06-14T00:55:55;20.10;85.80
44117;DHT22;29781;49.480;8.512;2023-06-14T00:58:21;20.10;87.00
44117;DHT22;29781;49.480;8.512;2023-06-14T01:00:47;20.10;87.90
44117;DHT22;29781;49.480;8.512;2023-06-14T01:03:13;20.10;87.90
44117;DHT22;29781;49.480;8.512;2023-06-14T01:05:44;20.30;87.70
44117;DHT22;29781;49.480;8.512;2023-06-14T01:08:28;20.30;86.80
44117;DHT22;29781;49.480;8.512;2023-06-14T01:11:02;20.30;87.30
44117;DHT22;29781;49.480;8.512;2023-06-14T01:13:43;20.30;87.60
44117;DHT22;29781;49.480;8.512;2023-06-14T01:16:10;20.20;86.60
44117;DHT22;29781;49.480;8.512;2023-06-14T01:18:36;20.30;86.30
44117;DHT22;29781;49.480;8.512;2023-06-14T01:21:02;20.40;86.50
44117;DHT22;29781;49.480;8.512;2023-06-14T01:23:31;20.50;85.80
44117;DHT22;29781;49.480;8.512;2023-06-14T01:25:59;20.30;86.20
44117;DHT22;29781;49.480;8.512;2023-06-14T01:28:27;20.30;86.50
44117;DHT22;29781;49.480;8.512;2023-06-14T01:31:00;20.30;86.40
44117;DHT22;29781;49.480;8.512;2023-06-14T01:33:29;20.30;85.90
44117;DHT22;29781;49.480;8.512;2023-06-14T01:35:56;20.10;86.40
44117;DHT22;29781;49.480;8.512;2023-06-14T01:38:24;19.90;87.20
44117;DHT22;29781;49.480;8.512;2023-06-14T01:40:51;19.90;87.10
44117;DHT22;29781;49.480;8.512;2023-06-14T01:43:18;19.80;86.80
44117;DHT22;29781;49.480;8.512;2023-06-14T01:45:46;19.60;87.80
44117;DHT22;29781;49.480;8.512;2023-06-14T01:48:13;19.80;86.90
44117;DHT22;29781;49.480;8.512;2023-06-14T01:50:39;19.70;88.20
44117;DHT22;29781;49.480;8.512;2023-06-14T01:53:09;19.60;87.80
44117;DHT22;29781;49.480;8.512;2023-06-14T01:55:35;19.30;88.50
44117;DHT22;29781;49.480;8.512;2023-06-14T01:58:03;19.40;88.10
44117;DHT22;29781;49.480;8.512;2023-06-14T02:00:29;19.40;88.60
44117;DHT22;29781;49.480;8.512;2023-06-14T02:02:54;19.60;88.30
44117;DHT22;29781;49.480;8.512;2023-06-14T02:05:21;19.90;87.80
44117;DHT22;29781;49.480;8.512;2023-06-14T02:07:46;19.90;87.60
44117;DHT22;29781;49.480;8.512;2023-06-14T02:10:12;19.90;87.50
44117;DHT22;29781;49.480;8.512;2023-06-14T02:12:38;19.80;87.10
44117;DHT22;29781;49.480;8.512;2023-06-14T02:15:04;19.80;86.70
44117;DHT22;29781;49.480;8.512;2023-06-14T02:17:31;19.80;86.90
44117;DHT22;29781;49.480;8.512;2023-06-14T02:19:56;19.60;87.20
44117;DHT22;29781;49.480;8.512;2023-06-14T02:22:22;19.40;88.30
44117;DHT22;29781;49.480;8.512;2023-06-14T02:24:48;19.40;88.20
44117;DHT22;29781;49.480;8.512;2023-06-14T02:27:14;19.30;88.30
44117;DHT22;29781;49.480;8.512;2023-06-14T02:29:39;19.30;88.70
44117;DHT22;29781;49.480;8.512;2023-06-14T02:32:05;19.40;88.10
44117;DHT22;29781;49.480;8.512;2023-06-14T02:34:33;19.40;87.70
44117;DHT22;29781;49.480;8.512;2023-06-14T02:36:59;19.40;87.70
44117;DHT22;29781;49.480;8.512;2023-06-14T02:39:24;19.30;88.40
44117;DHT22;29781;49.480;8.512;2023-06-14T02:41:50;19.20;88.50
44117;DHT22;29781;49.480;8.512;2023-06-14T02:44:18;19.20;88.80
44117;DHT22;29781;49.480;8.512;2023-06-14T02:46:44;19.20;88.90
44117;DHT22;29781;49.480;8.512;2023-06-14T02:49:11;19.00;89.30
44117;DHT22;29781;49.480;8.512;2023-06-14T02:51:37;18.90;89.90
44117;DHT22;29781;49.480;8.512;2023-06-14T02:54:02;18.80;90.10
44117;DHT22;29781;49.480;8.512;2023-06-14T02:56:29;18.90;90.20
44117;DHT22;29781;49.480;8.512;2023-06-14T02:58:54;19.00;90.10
44117;DHT22;29781;49.480;8.512;2023-06-14T03:01:20;19.00;90.10
44117;DHT22;29781;49.480;8.512;2023-06-14T03:03:47;18.80;90.40
44117;DHT22;29781;49.480;8.512;2023-06-14T03:06:12;18.80;90.50
44117;DHT22;29781;49.480;8.512;2023-06-14T03:08:40;18.80;90.60
44117;DHT22;29781;49.480;8.512;2023-06-14T03:11:07;19.00;90.50
44117;DHT22;29781;49.480;8.512;2023-06-14T03:13:36;19.10;90.50
44117;DHT22;29781;49.480;8.512;2023-06-14T03:16:02;19.10;90.40
44117;DHT22;29781;49.480;8.512;2023-06-14T03:18:29;19.20;90.60
44117;DHT22;29781;49.480;8.512;2023-06-14T03:20:56;19.20;90.40
44117;DHT22;29781;49.480;8.512;2023-06-14T03:23:24;19.20;90.30
44117;DHT22;29781;49.480;8.512;2023-06-14T03:25:50;19.00;90.60
44117;DHT22;29781;49.480;8.512;2023-06-14T03:28:16;19.20;90.60
44117;DHT22;29781;49.480;8.512;2023-06-14T03:30:42;19.20;90.50
44117;DHT22;29781;49.480;8.512;2023-06-14T03:33:08;19.00;90.80
44117;DHT22;29781;49.480;8.512;2023-06-14T03:35:33;19.00;90.90
44117;DHT22;29781;49.480;8.512;2023-06-14T03:37:59;18.80;91.10
44117;DHT22;29781;49.480;8.512;2023-06-14T03:40:25;18.60;91.00
44117;DHT22;29781;49.480;8.512;2023-06-14T03:42:53;18.50;91.20
44117;DHT22;29781;49.480;8.512;2023-06-14T03:45:19;18.40;90.80
44117;DHT22;29781;49.480;8.512;2023-06-14T03:47:45;18.50;90.80
44117;DHT22;29781;49.480;8.512;2023-06-14T03:50:10;18.50;90.80
44117;DHT22;29781;49.480;8.512;2023-06-14T03:52:36;18.40;90.90
44117;DHT22;29781;49.480;8.512;2023-06-14T03:55:02;18.40;90.90
44117;DHT22;29781;49.480;8.512;2023-06-14T03:57:29;18.20;91.10
44117;DHT22;29781;49.480;8.512;2023-06-14T03:59:54;17.90;91.60
44117;DHT22;29781;49.480;8.512;2023-06-14T04:02:20;18.00;91.40
44117;DHT22;29781;49.480;8.512;2023-06-14T04:04:45;18.20;91.20
44117;DHT22;29781;49.480;8.512;2023-06-14T04:07:12;18.20;91.30
44117;DHT22;29781;49.480;8.512;2023-06-14T04:09:38;18.50;90.90
44117;DHT22;29781;49.480;8.512;2023-06-14T04:12:05;18.60;90.80
44117;DHT22;29781;49.480;8.512;2023-06-14T04:14:30;18.30;91.20
44117;DHT22;29781;49.480;8.512;2023-06-14T04:16:58;18.10;91.50
44117;DHT22;29781;49.480;8.512;2023-06-14T04:19:23;17.90;92.00
44117;DHT22;29781;49.480;8.512;2023-06-14T04:21:49;18.00;92.00
44117;DHT22;29781;49.480;8.512;2023-06-14T04:24:14;17.90;92.00
44117;DHT22;29781;49.480;8.512;2023-06-14T04:26:44;17.80;92.10
44117;DHT22;29781;49.480;8.512;2023-06-14T04:29:14;17.50;92.30
44117;DHT22;29781;49.480;8.512;2023-06-14T04:31:44;17.30;92.40
44117;DHT22;29781;49.480;8.512;2023-06-14T04:34:10;17.20;92.60
44117;DHT22;29781;49.480;8.512;2023-06-14T04:36:42;17.20;92.90
44117;DHT22;29781;49.480;8.512;2023-06-14T04:39:21;17.20;93.10
44117;DHT22;29781;49.480;8.512;2023-06-14T04:41:47;17.30;92.70
44117;DHT22;29781;49.480;8.512;2023-06-14T04:44:13;17.40;92.60
44117;DHT22;29781;49.480;8.512;2023-06-14T04:46:39;17.60;92.70
44117;DHT22;29781;49.480;8.512;2023-06-14T04:49:12;18.00;92.10
44117;DHT22;29781;49.480;8.512;2023-06-14T04:51:39;18.00;92.10
44117;DHT22;29781;49.480;8.512;2023-06-14T04:54:05;18.00;92.10
44117;DHT22;29781;49.480;8.512;2023-06-14T04:56:35;18.00;92.20
44117;DHT22;29781;49.480;8.512;2023-06-14T04:59:02;17.80;92.50
44117;DHT22;29781;49.480;8.512;2023-06-14T05:01:30;17.90;92.40
44117;DHT22;29781;49.480;8.512;2023-06-14T05:03:57;18.10;92.40
44117;DHT22;29781;49.480;8.512;2023-06-14T05:06:23;18.30;92.00
44117;DHT22;29781;49.480;8.512;2023-06-14T05:08:49;18.40;92.30
44117;DHT22;29781;49.480;8.512;2023-06-14T05:11:14;18.70;91.40
44117;DHT22;29781;49.480;8.512;2023-06-14T05:13:40;18.80;91.40
44117;DHT22;29781;49.480;8.512;2023-06-14T05:16:07;19.20;91.10
44117;DHT22;29781;49.480;8.512;2023-06-14T05:18:32;19.50;90.50
44117;DHT22;29781;49.480;8.512;2023-06-14T05:21:00;20.10;90.30
44117;DHT22;29781;49.480;8.512;2023-06-14T05:23:26;20.30;90.00
44117;DHT22;29781;49.480;8.512;2023-06-14T05:25:52;20.40;89.40
44117;DHT22;29781;49.480;8.512;2023-06-14T05:28:17;20.70;89.00
44117;DHT22;29781;49.480;8.512;2023-06-14T05:30:43;21.00;88.10
44117;DHT22;29781;49.480;8.512;2023-06-14T05:33:09;21.40;86.90
44117;DHT22;29781;49.480;8.512;2023-06-14T05:35:34;21.50;86.30
44117;DHT22;29781;49.480;8.512;2023-06-14T05:38:00;21.30;86.80
44117;DHT22;29781;49.480;8.512;2023-06-14T05:40:26;20.70;88.50
44117;DHT22;29781;49.480;8.512;2023-06-14T05:42:51;20.50;89.00
44117;DHT22;29781;49.480;8.512;2023-06-14T05:45:17;20.40;89.20
44117;DHT22;29781;49.480;8.512;2023-06-14T05:47:43;20.30;90.00
44117;DHT22;29781;49.480;8.512;2023-06-14T05:50:09;19.90;91.00
44117;DHT22;29781;49.480;8.512;2023-06-14T05:52:35;19.90;90.70
44117;DHT22;29781;49.480;8.512;2023-06-14T05:55:02;19.70;90.70
44117;DHT22;29781;49.480;8.512;2023-06-14T05:57:28;19.50;91.10
44117;DHT22;29781;49.480;8.512;2023-06-14T05:59:54;19.60;91.20
44117;DHT22;29781;49.480;8.512;2023-06-14T06:02:19;19.50;91.50
44117;DHT22;29781;49.480;8.512;2023-06-14T06:04:45;19.50;91.60
44117;DHT22;29781;49.480;8.512;2023-06-14T06:07:11;19.60;91.30
44117;DHT22;29781;49.480;8.512;2023-06-14T06:09:36;19.80;90.50
44117;DHT22;29781;49.480;8.512;2023-06-14T06:12:02;19.70;90.70
44117;DHT22;29781;49.480;8.512;2023-06-14T06:14:28;19.70;90.90
44117;DHT22;29781;49.480;8.512;2023-06-14T06:16:54;19.90;90.30
44117;DHT22;29781;49.480;8.512;2023-06-14T06:19:19;19.80;90.10
44117;DHT22;29781;49.480;8.512;2023-06-14T06:21:45;19.80;90.20
44117;DHT22;29781;49.480;8.512;2023-06-14T06:24:11;19.80;90.20
44117;DHT22;29781;49.480;8.512;2023-06-14T06:26:36;19.90;90.40
44117;DHT22;29781;49.480;8.512;2023-06-14T06:29:02;20.00;89.10
44117;DHT22;29781;49.480;8.512;2023-06-14T06:31:27;19.80;89.40
44117;DHT22;29781;49.480;8.512;2023-06-14T06:33:56;19.90;89.20
44117;DHT22;29781;49.480;8.512;2023-06-14T06:36:21;20.00;90.00
44117;DHT22;29781;49.480;8.512;2023-06-14T06:38:47;20.10;89.90
44117;DHT22;29781;49.480;8.512;2023-06-14T06:41:13;20.20;89.70
44117;DHT22;29781;49.480;8.512;2023-06-14T06:43:38;20.30;89.60
44117;DHT22;29781;49.480;8.512;2023-06-14T06:46:04;20.30;89.00
44117;DHT22;29781;49.480;8.512;2023-06-14T06:48:30;20.20;88.80
44117;DHT22;29781;49.480;8.512;2023-06-14T06:50:56;20.30;89.30
44117;DHT22;29781;49.480;8.512;2023-06-14T06:53:21;20.30;88.90
44117;DHT22;29781;49.480;8.512;2023-06-14T06:55:47;20.30;90.20
44117;DHT22;29781;49.480;8.512;2023-06-14T06:58:13;20.30;88.70
44117;DHT22;29781;49.480;8.512;2023-06-14T07:00:39;20.50;88.80
44117;DHT22;29781;49.480;8.512;2023-06-14T07:03:05;20.50;88.90
44117;DHT22;29781;49.480;8.512;2023-06-14T07:05:31;20.50;89.00
44117;DHT22;29781;49.480;8.512;2023-06-14T07:07:57;20.60;89.10
44117;DHT22;29781;49.480;8.512;2023-06-14T07:10:23;20.60;89.30
44117;DHT22;29781;49.480;8.512;2023-06-14T07:12:50;20.70;88.10
44117;DHT22;29781;49.480;8.512;2023-06-14T07:15:16;20.70;87.70
44117;DHT22;29781;49.480;8.512;2023-06-14T07:17:41;20.60;87.90
44117;DHT22;29781;49.480;8.512;2023-06-14T07:20:08;20.60;87.70
44117;DHT22;29781;49.480;8.512;2023-06-14T07:22:37;20.90;88.20
44117;DHT22;29781;49.480;8.512;2023-06-14T07:25:03;21.00;87.60
44117;DHT22;29781;49.480;8.512;2023-06-14T07:27:29;21.10;87.10
44117;DHT22;29781;49.480;8.512;2023-06-14T07:30:00;21.10;87.00
44117;DHT22;29781;49.480;8.512;2023-06-14T07:32:28;21.10;87.30
44117;DHT22;29781;49.480;8.512;2023-06-14T07:34:54;21.10;86.90
44117;DHT22;29781;49.480;8.512;2023-06-14T07:37:19;21.10;86.80
44117;DHT22;29781;49.480;8.512;2023-06-14T07:39:45;21.20;86.70
44117;DHT22;29781;49.480;8.512;2023-06-14T07:42:11;21.10;85.70
44117;DHT22;29781;49.480;8.512;2023-06-14T07:44:36;21.10;86.80
44117;DHT22;29781;49.480;8.512;2023-06-14T07:47:02;21.30;85.80
44117;DHT22;29781;49.480;8.512;2023-06-14T07:49:27;21.30;86.10
44117;DHT22;29781;49.480;8.512;2023-06-14T07:51:53;21.30;85.90
44117;DHT22;29781;49.480;8.512;2023-06-14T07:54:19;21.50;85.90
44117;DHT22;29781;49.480;8.512;2023-06-14T07:56:45;21.50;86.80
44117;DHT22;29781;49.480;8.512;2023-06-14T07:59:11;21.60;86.30
44117;DHT22;29781;49.480;8.512;2023-06-14T08:01:36;21.60;86.20
44117;DHT22;29781;49.480;8.512;2023-06-14T08:04:02;21.50;86.80
44117;DHT22;29781;49.480;8.512;2023-06-14T08:06:28;21.60;85.60
44117;DHT22;29781;49.480;8.512;2023-06-14T08:08:53;21.60;86.50
44117;DHT22;29781;49.480;8.512;2023-06-14T08:11:19;21.80;85.90
44117;DHT22;29781;49.480;8.512;2023-06-14T08:13:44;21.80;85.10
44117;DHT22;29781;49.480;8.512;2023-06-14T08:16:10;21.80;85.50
44117;DHT22;29781;49.480;8.512;2023-06-14T08:18:36;21.90;85.20
44117;DHT22;29781;49.480;8.512;2023-06-14T08:21:02;22.00;85.40
44117;DHT22;29781;49.480;8.512;2023-06-14T08:23:28;22.10;85.50
44117;DHT22;29781;49.480;8.512;2023-06-14T08:25:53;21.90;83.30
44117;DHT22;29781;49.480;8.512;2023-06-14T08:28:19;21.70;84.60
44117;DHT22;29781;49.480;8.512;2023-06-14T08:30:45;21.70;83.50
44117;DHT22;29781;49.480;8.512;2023-06-14T08:33:11;21.60;85.10
44117;DHT22;29781;49.480;8.512;2023-06-14T08:35:36;21.70;84.90
44117;DHT22;29781;49.480;8.512;2023-06-14T08:38:03;21.60;84.50
44117;DHT22;29781;49.480;8.512;2023-06-14T08:40:30;21.80;85.00
44117;DHT22;29781;49.480;8.512;2023-06-14T08:42:56;21.90;83.50
44117;DHT22;29781;49.480;8.512;2023-06-14T08:45:23;21.90;84.70
44117;DHT22;29781;49.480;8.512;2023-06-14T08:47:53;22.20;84.30
44117;DHT22;29781;49.480;8.512;2023-06-14T08:50:24;22.30;81.60
44117;DHT22;29781;49.480;8.512;2023-06-14T08:52:54;22.30;81.40
44117;DHT22;29781;49.480;8.512;2023-06-14T08:55:23;22.30;82.10
44117;DHT22;29781;49.480;8.512;2023-06-14T08:57:54;22.40;81.60
44117;DHT22;29781;49.480;8.512;2023-06-14T09:00:22;22.10;81.80
44117;DHT22;29781;49.480;8.512;2023-06-14T09:02:48;22.00;82.80
44117;DHT22;29781;49.480;8.512;2023-06-14T09:05:13;22.20;82.40
44117;DHT22;29781;49.480;8.512;2023-06-14T09:07:42;22.40;79.10
44117;DHT22;29781;49.480;8.512;2023-06-14T09:10:10;22.50;79.10
44117;DHT22;29781;49.480;8.512;2023-06-14T09:12:36;22.60;81.80
44117;DHT22;29781;49.480;8.512;2023-06-14T09:15:02;22.50;80.90
44117;DHT22;29781;49.480;8.512;2023-06-14T09:17:32;22.30;78.00
44117;DHT22;29781;49.480;8.512;2023-06-14T09:19:58;22.30;78.30
44117;DHT22;29781;49.480;8.512;2023-06-14T09:22:24;22.40;78.80
44117;DHT22;29781;49.480;8.512;2023-06-14T09:24:50;22.30;79.50
44117;DHT22;29781;49.480;8.512;2023-06-14T09:27:16;22.40;79.40
44117;DHT22;29781;49.480;8.512;2023-06-14T09:29:41;22.50;78.80
44117;DHT22;29781;49.480;8.512;2023-06-14T09:32:07;22.50;80.00
44117;DHT22;29781;49.480;8.512;2023-06-14T09:34:35;22.40;80.40
44117;DHT22;29781;49.480;8.512;2023-06-14T09:37:01;22.40;80.30
44117;DHT22;29781;49.480;8.512;2023-06-14T09:39:26;22.60;79.90
44117;DHT22;29781;49.480;8.512;2023-06-14T09:41:52;22.50;77.70
44117;DHT22;29781;49.480;8.512;2023-06-14T09:44:18;22.50;78.80
44117;DHT22;29781;49.480;8.512;2023-06-14T09:46:45;22.80;79.10
44117;DHT22;29781;49.480;8.512;2023-06-14T09:49:12;22.90;78.70
44117;DHT22;29781;49.480;8.512;2023-06-14T09:51:43;22.80;80.20
44117;DHT22;29781;49.480;8.512;2023-06-14T09:54:14;22.80;79.40
44117;DHT22;29781;49.480;8.512;2023-06-14T09:56:47;22.80;80.30
44117;DHT22;29781;49.480;8.512;2023-06-14T09:59:13;22.80;80.40
44117;DHT22;29781;49.480;8.512;2023-06-14T10:01:42;22.90;77.70
44117;DHT22;29781;49.480;8.512;2023-06-14T10:04:09;23.20;78.80
44117;DHT22;29781;49.480;8.512;2023-06-14T10:06:40;23.30;78.10
44117;DHT22;29781;49.480;8.512;2023-06-14T10:09:10;23.00;79.30
44117;DHT22;29781;49.480;8.512;2023-06-14T10:11:36;22.90;79.70
44117;DHT22;29781;49.480;8.512;2023-06-14T10:14:04;22.80;78.20
44117;DHT22;29781;49.480;8.512;2023-06-14T10:16:57;22.70;77.70
44117;DHT22;29781;49.480;8.512;2023-06-14T10:19:36;22.90;78.30
44117;DHT22;29781;49.480;8.512;2023-06-14T10:22:24;23.10;79.40
44117;DHT22;29781;49.480;8.512;2023-06-14T10:24:51;23.10;79.30
44117;DHT22;29781;49.480;8.512;2023-06-14T10:27:17;23.00;78.20
44117;DHT22;29781;49.480;8.512;2023-06-14T10:32:18;23.30;76.70
44117;DHT22;29781;49.480;8.512;2023-06-14T10:34:44;23.40;78.10
44117;DHT22;29781;49.480;8.512;2023-06-14T10:37:14;23.90;76.50
44117;DHT22;29781;49.480;8.512;2023-06-14T10:39:44;23.70;75.80
44117;DHT22;29781;49.480;8.512;2023-06-14T10:42:11;23.50;77.20
44117;DHT22;29781;49.480;8.512;2023-06-14T10:44:38;23.40;76.90
44117;DHT22;29781;49.480;8.512;2023-06-14T10:47:25;23.10;77.10
44117;DHT22;29781;49.480;8.512;2023-06-14T10:50:05;23.20;77.60
44117;DHT22;29781;49.480;8.512;2023-06-14T10:52:33;23.20;78.60
44117;DHT22;29781;49.480;8.512;2023-06-14T10:55:11;22.90;79.70
44117;DHT22;29781;49.480;8.512;2023-06-14T11:00:07;22.80;78.20
44117;DHT22;29781;49.480;8.512;2023-06-14T11:05:54;23.40;77.60
44117;DHT22;29781;49.480;8.512;2023-06-14T11:08:54;23.70;78.20
44117;DHT22;29781;49.480;8.512;2023-06-14T11:11:22;23.70;77.10
44117;DHT22;29781;49.480;8.512;2023-06-14T11:13:49;24.00;76.30
44117;DHT22;29781;49.480;8.512;2023-06-14T11:16:17;24.50;75.00
44117;DHT22;29781;49.480;8.512;2023-06-14T11:18:44;24.20;75.10
44117;DHT22;29781;49.480;8.512;2023-06-14T11:21:10;24.00;75.70
44117;DHT22;29781;49.480;8.512;2023-06-14T11:23:36;23.90;75.30
44117;DHT22;29781;49.480;8.512;2023-06-14T11:26:02;23.70;77.00
44117;DHT22;29781;49.480;8.512;2023-06-14T11:28:40;23.90;76.90
44117;DHT22;29781;49.480;8.512;2023-06-14T11:31:06;24.10;76.00
44117;DHT22;29781;49.480;8.512;2023-06-14T11:33:32;23.80;76.60
44117;DHT22;29781;49.480;8.512;2023-06-14T11:35:58;23.50;76.00
44117;DHT22;29781;49.480;8.512;2023-06-14T11:38:25;23.30;76.80
44117;DHT22;29781;49.480;8.512;2023-06-14T11:40:51;23.40;76.20
44117;DHT22;29781;49.480;8.512;2023-06-14T11:43:16;23.70;77.50
44117;DHT22;29781;49.480;8.512;2023-06-14T11:45:42;23.90;75.70
44117;DHT22;29781;49.480;8.512;2023-06-14T11:48:08;24.00;74.70
44117;DHT22;29781;49.480;8.512;2023-06-14T11:50:37;24.20;74.20
44117;DHT22;29781;49.480;8.512;2023-06-14T11:53:06;24.00;75.10
44117;DHT22;29781;49.480;8.512;2023-06-14T11:55:39;23.80;75.50
44117;DHT22;29781;49.480;8.512;2023-06-14T11:58:08;23.70;76.50
44117;DHT22;29781;49.480;8.512;2023-06-14T12:00:35;23.80;77.00
44117;DHT22;29781;49.480;8.512;2023-06-14T12:03:02;23.40;76.50
44117;DHT22;29781;49.480;8.512;2023-06-14T12:05:28;23.40;76.50
44117;DHT22;29781;49.480;8.512;2023-06-14T12:08:02;23.70;76.40
44117;DHT22;29781;49.480;8.512;2023-06-14T12:10:28;23.70;77.00
44117;DHT22;29781;49.480;8.512;2023-06-14T12:13:00;23.90;77.30
44117;DHT22;29781;49.480;8.512;2023-06-14T12:15:28;24.00;76.60
44117;DHT22;29781;49.480;8.512;2023-06-14T12:17:58;24.00;77.00
44117;DHT22;29781;49.480;8.512;2023-06-14T12:20:29;24.10;76.10
44117;DHT22;29781;49.480;8.512;2023-06-14T12:22:56;24.10;77.50
44117;DHT22;29781;49.480;8.512;2023-06-14T12:25:33;24.20;76.70
44117;DHT22;29781;49.480;8.512;2023-06-14T12:28:08;24.10;77.00
44117;DHT22;29781;49.480;8.512;2023-06-14T12:30:37;24.00;76.30
44117;DHT22;29781;49.480;8.512;2023-06-14T12:33:03;24.10;77.50
44117;DHT22;29781;49.480;8.512;2023-06-14T12:35:29;24.10;76.20
44117;DHT22;29781;49.480;8.512;2023-06-14T12:37:54;24.10;76.80
44117;DHT22;29781;49.480;8.512;2023-06-14T12:40:21;23.90;75.90
44117;DHT22;29781;49.480;8.512;2023-06-14T12:42:47;23.80;76.50
44117;DHT22;29781;49.480;8.512;2023-06-14T12:45:12;23.90;76.90
44117;DHT22;29781;49.480;8.512;2023-06-14T12:47:39;24.00;75.60
44117;DHT22;29781;49.480;8.512;2023-06-14T12:50:06;23.90;75.50
44117;DHT22;29781;49.480;8.512;2023-06-14T12:52:32;24.10;76.90
44117;DHT22;29781;49.480;8.512;2023-06-14T12:55:04;24.20;75.50
44117;DHT22;29781;49.480;8.512;2023-06-14T12:57:30;24.20;75.50
44117;DHT22;29781;49.480;8.512;2023-06-14T12:59:56;24.00;76.30
44117;DHT22;29781;49.480;8.512;2023-06-14T13:02:21;23.80;76.20
44117;DHT22;29781;49.480;8.512;2023-06-14T13:04:50;23.80;76.00
44117;DHT22;29781;49.480;8.512;2023-06-14T13:07:16;23.70;76.20
44117;DHT22;29781;49.480;8.512;2023-06-14T13:09:42;23.60;76.50
44117;DHT22;29781;49.480;8.512;2023-06-14T13:12:10;23.40;76.10
44117;DHT22;29781;49.480;8.512;2023-06-14T13:14:36;23.50;77.10
44117;DHT22;29781;49.480;8.512;2023-06-14T13:17:02;23.80;77.40
44117;DHT22;29781;49.480;8.512;2023-06-14T13:19:27;24.10;75.70
44117;DHT22;29781;49.480;8.512;2023-06-14T13:21:53;24.20;75.40
44117;DHT22;29781;49.480;8.512;2023-06-14T13:24:19;24.30;75.90
44117;DHT22;29781;49.480;8.512;2023-06-14T13:26:45;24.20;74.70
44117;DHT22;29781;49.480;8.512;2023-06-14T13:29:11;24.20;76.00
44117;DHT22;29781;49.480;8.512;2023-06-14T13:31:36;24.20;74.90
44117;DHT22;29781;49.480;8.512;2023-06-14T13:34:02;24.00;75.00
44117;DHT22;29781;49.480;8.512;2023-06-14T13:36:28;23.70;75.90
44117;DHT22;29781;49.480;8.512;2023-06-14T13:38:53;23.70;77.40
44117;DHT22;29781;49.480;8.512;2023-06-14T13:41:20;23.70;76.90
44117;DHT22;29781;49.480;8.512;2023-06-14T13:43:45;23.80;76.60
44117;DHT22;29781;49.480;8.512;2023-06-14T13:46:11;23.70;77.10
44117;DHT22;29781;49.480;8.512;2023-06-14T13:48:40;23.90;76.50
44117;DHT22;29781;49.480;8.512;2023-06-14T13:51:05;24.00;76.80
44117;DHT22;29781;49.480;8.512;2023-06-14T13:53:31;24.20;77.30
44117;DHT22;29781;49.480;8.512;2023-06-14T13:55:57;24.30;75.90
44117;DHT22;29781;49.480;8.512;2023-06-14T13:58:22;24.10;76.60
44117;DHT22;29781;49.480;8.512;2023-06-14T14:00:55;23.90;76.50
44117;DHT22;29781;49.480;8.512;2023-06-14T14:03:20;24.00;77.40
44117;DHT22;29781;49.480;8.512;2023-06-14T14:05:46;24.20;75.80
44117;DHT22;29781;49.480;8.512;2023-06-14T14:08:12;24.30;76.50
44117;DHT22;29781;49.480;8.512;2023-06-14T14:10:38;24.50;75.60
44117;DHT22;29781;49.480;8.512;2023-06-14T14:13:04;24.70;75.20
44117;DHT22;29781;49.480;8.512;2023-06-14T14:15:29;24.80;76.30
44117;DHT22;29781;49.480;8.512;2023-06-14T14:17:55;24.70;75.40
44117;DHT22;29781;49.480;8.512;2023-06-14T14:20:23;24.70;76.00
44117;DHT22;29781;49.480;8.512;2023-06-14T14:22:48;24.70;76.20
44117;DHT22;29781;49.480;8.512;2023-06-14T14:25:14;24.80;76.50
44117;DHT22;29781;49.480;8.512;2023-06-14T14:27:39;24.50;75.90
44117;DHT22;29781;49.480;8.512;2023-06-14T14:30:06;24.40;77.40
44117;DHT22;29781;49.480;8.512;2023-06-14T14:32:31;24.50;76.80
44117;DHT22;29781;49.480;8.512;2023-06-14T14:34:57;24.30;75.20
44117;DHT22;29781;49.480;8.512;2023-06-14T14:37:23;24.30;76.40
44117;DHT22;29781;49.480;8.512;2023-06-14T14:39:49;24.30;75.90
44117;DHT22;29781;49.480;8.512;2023-06-14T14:42:14;24.30;75.90
44117;DHT22;29781;49.480;8.512;2023-06-14T14:44:40;24.10;75.80
44117;DHT22;29781;49.480;8.512;2023-06-14T14:47:06;24.00;76.50
44117;DHT22;29781;49.480;8.512;2023-06-14T14:49:32;24.00;76.80
44117;DHT22;29781;49.480;8.512;2023-06-14T14:51:57;24.20;77.10
44117;DHT22;29781;49.480;8.512;2023-06-14T14:54:23;24.30;77.00
44117;DHT22;29781;49.480;8.512;2023-06-14T14:56:50;24.40;76.40
44117;DHT22;29781;49.480;8.512;2023-06-14T14:59:16;24.40;76.40
44117;DHT22;29781;49.480;8.512;2023-06-14T15:01:41;24.50;76.00
44117;DHT22;29781;49.480;8.512;2023-06-14T15:04:07;24.50;76.30
44117;DHT22;29781;49.480;8.512;2023-06-14T15:06:32;24.70;75.10
44117;DHT22;29781;49.480;8.512;2023-06-14T15:09:01;24.70;76.00
44117;DHT22;29781;49.480;8.512;2023-06-14T15:11:26;24.70;74.90
44117;DHT22;29781;49.480;8.512;2023-06-14T15:13:52;24.80;75.60
44117;DHT22;29781;49.480;8.512;2023-06-14T15:16:18;24.70;74.40
44117;DHT22;29781;49.480;8.512;2023-06-14T15:18:44;24.50;74.70
44117;DHT22;29781;49.480;8.512;2023-06-14T15:21:09;24.60;74.90
44117;DHT22;29781;49.480;8.512;2023-06-14T15:23:35;24.80;74.10
44117;DHT22;29781;49.480;8.512;2023-06-14T15:26:00;24.70;73.80
44117;DHT22;29781;49.480;8.512;2023-06-14T15:28:26;24.60;74.30
44117;DHT22;29781;49.480;8.512;2023-06-14T15:30:55;24.50;74.20
44117;DHT22;29781;49.480;8.512;2023-06-14T15:33:20;24.50;74.40
44117;DHT22;29781;49.480;8.512;2023-06-14T15:35:46;24.60;75.50
44117;DHT22;29781;49.480;8.512;2023-06-14T15:38:12;24.70;74.80